createdAt,value
2018-11-28T00:00:32.112Z,-3.05
2018-11-28T00:03:03.365Z,-3.03
2018-11-28T00:05:32.703Z,-3.02
2018-11-28T00:08:02.101Z,-3.05
2018-11-28T00:10:31.268Z,-3.05
2018-11-28T00:13:00.557Z,-3.10
2018-11-28T00:15:29.960Z,-3.15
2018-11-28T00:17:59.417Z,-3.19
2018-11-28T00:20:28.843Z,-3.24
2018-11-28T00:22:58.064Z,-3.21
2018-11-28T00:25:27.446Z,-3.23
2018-11-28T00:27:56.860Z,-3.22
2018-11-28T00:30:26.861Z,-3.22
2018-11-28T00:32:56.291Z,-3.24
2018-11-28T00:35:25.808Z,-3.24
2018-11-28T00:37:55.340Z,-3.27
2018-11-28T00:40:24.946Z,-3.27
2018-11-28T00:42:54.256Z,-3.20
2018-11-28T00:45:24.730Z,-3.21
2018-11-28T00:47:54.080Z,-3.22
2018-11-28T00:50:26.551Z,-3.28
2018-11-28T00:52:55.990Z,-3.29
2018-11-28T00:55:25.341Z,-3.36
2018-11-28T00:57:54.746Z,-3.38
2018-11-28T01:00:25.963Z,-3.39
2018-11-28T01:02:55.248Z,-3.32
2018-11-28T01:05:24.592Z,-3.31
2018-11-28T01:07:54.775Z,-3.32
2018-11-28T01:10:25.120Z,-3.27
2018-11-28T01:12:54.982Z,-3.24
2018-11-28T01:15:24.368Z,-3.18
2018-11-28T01:17:53.813Z,-3.14
2018-11-28T01:20:24.106Z,-3.18
2018-11-28T01:22:53.416Z,-3.19
2018-11-28T01:25:23.160Z,-3.17
2018-11-28T01:27:52.806Z,-3.15
2018-11-28T01:30:22.768Z,-3.17
2018-11-28T01:32:52.016Z,-3.18
2018-11-28T01:35:22.154Z,-3.18
2018-11-28T01:37:51.506Z,-4.09
2018-11-28T01:40:23.194Z,-3.18
2018-11-28T01:42:53.120Z,-3.19
2018-11-28T01:45:24.210Z,-3.17
2018-11-28T01:47:53.433Z,-3.14
2018-11-28T01:50:22.935Z,-3.03
2018-11-28T01:52:52.327Z,-2.94
2018-11-28T01:55:23.210Z,-3.00
2018-11-28T01:57:52.505Z,-3.84
2018-11-28T02:00:22.652Z,-3.04
2018-11-28T02:02:57.018Z,-3.04
2018-11-28T02:05:26.825Z,-3.03
2018-11-28T02:07:56.420Z,-3.04
2018-11-28T02:10:25.808Z,-3.04
2018-11-28T02:12:54.076Z,-3.01
2018-11-28T02:15:27.654Z,-3.04
2018-11-28T02:17:57.696Z,-2.97
2018-11-28T02:20:27.293Z,-2.92
2018-11-28T02:22:56.903Z,-2.90
2018-11-28T02:25:26.390Z,-2.84
2018-11-28T02:27:55.598Z,-2.91
2018-11-28T02:30:24.928Z,-2.73
2018-11-28T02:32:54.208Z,-2.65
2018-11-28T02:35:23.483Z,-2.59
2018-11-28T02:37:52.630Z,-2.57
2018-11-28T02:40:22.921Z,-2.53
2018-11-28T02:42:52.503Z,-2.56
2018-11-28T02:45:22.632Z,-2.63
2018-11-28T02:47:52.678Z,-2.55
2018-11-28T02:50:22.417Z,-2.51
2018-11-28T02:52:51.760Z,-2.49
2018-11-28T02:55:20.987Z,-2.48
2018-11-28T02:57:50.807Z,-2.44
2018-11-28T03:00:22.910Z,-2.56
2018-11-28T03:02:52.143Z,-2.53
2018-11-28T03:05:21.371Z,-2.46
2018-11-28T03:07:50.675Z,-2.44
2018-11-28T03:10:22.106Z,-2.42
2018-11-28T03:12:51.395Z,-2.42
2018-11-28T03:15:33.651Z,-2.41
2018-11-28T03:18:03.340Z,-2.45
2018-11-28T03:20:32.583Z,-2.48
2018-11-28T03:23:01.860Z,-2.49
2018-11-28T03:25:31.189Z,-2.47
2018-11-28T03:28:00.620Z,-3.19
2018-11-28T03:30:30.130Z,-2.51
2018-11-28T03:32:59.530Z,-2.48
2018-11-28T03:35:29.207Z,-2.44
2018-11-28T03:37:58.663Z,-2.44
2018-11-28T03:40:28.128Z,-2.45
2018-11-28T03:42:57.737Z,-2.54
2018-11-28T03:45:26.945Z,-2.62
2018-11-28T03:47:56.296Z,-2.67
2018-11-28T03:50:25.573Z,-2.71
2018-11-28T03:52:55.028Z,-2.72
2018-11-28T03:55:24.303Z,-2.83
2018-11-28T03:57:53.476Z,-2.64
2018-11-28T04:00:23.121Z,-2.57
2018-11-28T04:02:52.487Z,-2.53
2018-11-28T04:05:22.040Z,-2.48
2018-11-28T04:07:51.392Z,-2.54
2018-11-28T04:10:21.764Z,-2.64
2018-11-28T04:12:51.268Z,-2.61
2018-11-28T04:15:22.078Z,-2.49
2018-11-28T04:17:51.358Z,-2.49
2018-11-28T04:20:21.535Z,-2.52
2018-11-28T04:22:50.942Z,-2.45
2018-11-28T04:25:21.098Z,-2.42
2018-11-28T04:27:50.680Z,-2.39
2018-11-28T04:30:21.963Z,-2.39
2018-11-28T04:32:51.547Z,-2.42
2018-11-28T04:35:21.789Z,-2.41
2018-11-28T04:37:51.295Z,-2.40
2018-11-28T04:40:22.244Z,-2.55
2018-11-28T04:42:51.707Z,-2.63
2018-11-28T04:45:22.680Z,-2.60
2018-11-28T04:47:52.421Z,-2.57
2018-11-28T04:50:21.416Z,-2.52
2018-11-28T04:52:50.583Z,-3.37
2018-11-28T04:55:20.383Z,-2.51
2018-11-28T04:57:49.733Z,-2.49
2018-11-28T05:00:22.031Z,-2.50
2018-11-28T05:02:51.314Z,-2.52
2018-11-28T05:05:20.818Z,-2.56
2018-11-28T05:07:50.807Z,-2.57
2018-11-28T05:10:24.678Z,-2.67
2018-11-28T05:12:54.340Z,-2.69
2018-11-28T05:15:25.756Z,-2.67
2018-11-28T05:17:55.578Z,-2.60
2018-11-28T05:20:26.611Z,-2.56
2018-11-28T05:22:55.895Z,-2.60
2018-11-28T05:25:26.419Z,-2.79
2018-11-28T05:27:57.400Z,-2.64
2018-11-28T05:30:27.726Z,-2.53
2018-11-28T05:32:57.119Z,-2.59
2018-11-28T05:35:27.642Z,-2.69
2018-11-28T05:37:57.516Z,-2.73
2018-11-28T05:40:27.935Z,-2.76
2018-11-28T05:42:57.564Z,-2.74
2018-11-28T05:45:27.002Z,-2.70
2018-11-28T05:47:56.326Z,-2.66
2018-11-28T05:50:25.674Z,-2.69
2018-11-28T05:52:55.090Z,-2.72
2018-11-28T05:55:24.527Z,-2.73
2018-11-28T05:57:53.769Z,-2.72
2018-11-28T06:00:37.222Z,-2.63
2018-11-28T06:03:07.944Z,-2.60
2018-11-28T06:05:37.226Z,-2.52
2018-11-28T06:08:07.094Z,-2.47
2018-11-28T06:10:36.551Z,-2.48
2018-11-28T06:13:06.322Z,-2.47
2018-11-28T06:15:35.510Z,-2.45
2018-11-28T06:18:04.960Z,-2.47
2018-11-28T06:20:34.286Z,-2.59
2018-11-28T06:23:03.671Z,-2.62
2018-11-28T06:25:33.046Z,-2.56
2018-11-28T06:28:02.233Z,-2.54
2018-11-28T06:30:31.448Z,-2.65
2018-11-28T06:33:00.749Z,-2.59
2018-11-28T06:35:30.119Z,-2.65
2018-11-28T06:37:59.514Z,-2.58
2018-11-28T06:40:29.070Z,-2.58
2018-11-28T06:42:58.515Z,-2.55
2018-11-28T06:45:27.933Z,-2.51
2018-11-28T06:47:57.248Z,-2.54
2018-11-28T06:50:26.574Z,-2.57
2018-11-28T06:52:56.294Z,-2.63
2018-11-28T06:55:25.655Z,-2.63
2018-11-28T06:57:54.978Z,-2.54
2018-11-28T07:00:24.586Z,-2.46
2018-11-28T07:02:54.681Z,-2.46
2018-11-28T07:05:24.454Z,-2.57
2018-11-28T07:07:53.986Z,-2.53
2018-11-28T07:10:23.865Z,-2.54
2018-11-28T07:12:53.135Z,-2.51
2018-11-28T07:15:23.586Z,-2.46
2018-11-28T07:17:53.069Z,-2.52
2018-11-28T07:20:22.291Z,-2.54
2018-11-28T07:22:51.820Z,-2.60
2018-11-28T07:25:21.085Z,-2.62
2018-11-28T07:27:50.486Z,-2.71
2018-11-28T07:30:21.522Z,-2.73
2018-11-28T07:32:52.068Z,-2.74
2018-11-28T07:35:21.349Z,-2.69
2018-11-28T07:37:50.505Z,-2.60
2018-11-28T07:40:22.544Z,-2.53
2018-11-28T07:42:57.013Z,-2.63
2018-11-28T07:45:26.239Z,-2.66
2018-11-28T07:47:55.692Z,-2.63
2018-11-28T07:50:24.962Z,-2.53
2018-11-28T07:52:54.109Z,-2.52
2018-11-28T07:55:23.183Z,-2.51
2018-11-28T07:57:52.787Z,-2.55
2018-11-28T08:00:22.325Z,-2.51
2018-11-28T08:02:51.724Z,-2.44
2018-11-28T08:05:21.023Z,-2.44
2018-11-28T08:07:50.434Z,-2.40
2018-11-28T08:10:22.821Z,-2.41
2018-11-28T08:12:55.106Z,-2.44
2018-11-28T08:15:24.638Z,-2.40
2018-11-28T08:17:54.184Z,-2.31
2018-11-28T08:20:23.099Z,-2.34
2018-11-28T08:22:52.429Z,-2.28
2018-11-28T08:25:27.519Z,-2.29
2018-11-28T08:27:51.749Z,-2.30
2018-11-28T08:30:22.899Z,-2.29
2018-11-28T08:32:52.216Z,-2.29
2018-11-28T08:35:21.650Z,-2.29
2018-11-28T08:37:50.940Z,-2.23
2018-11-28T08:40:22.351Z,-2.18
2018-11-28T08:42:51.717Z,-2.15
2018-11-28T08:45:21.724Z,-2.11
2018-11-28T08:47:52.034Z,-2.08
2018-11-28T08:50:26.353Z,-2.06
2018-11-28T08:52:55.633Z,-2.01
2018-11-28T08:55:24.991Z,-1.93
2018-11-28T08:57:54.314Z,-1.92
2018-11-28T09:00:25.396Z,-1.94
2018-11-28T09:02:55.707Z,-1.89
2018-11-28T09:05:25.058Z,-1.96
2018-11-28T09:07:54.473Z,-2.00
2018-11-28T09:10:24.650Z,-1.95
2018-11-28T09:12:54.161Z,-1.99
2018-11-28T09:15:25.319Z,-1.99
2018-11-28T09:17:54.825Z,-1.94
2018-11-28T09:20:24.053Z,-1.89
2018-11-28T09:22:53.421Z,-1.85
2018-11-28T09:25:22.876Z,-1.79
2018-11-28T09:27:56.420Z,-1.77
2018-11-28T09:30:26.213Z,-1.69
2018-11-28T09:32:55.752Z,-1.64
2018-11-28T09:35:25.294Z,-1.55
2018-11-28T09:37:54.610Z,-1.50
2018-11-28T09:40:24.845Z,-1.47
2018-11-28T09:42:55.116Z,-1.39
2018-11-28T09:45:24.508Z,-1.37
2018-11-28T09:47:53.797Z,-1.28
2018-11-28T09:50:26.013Z,-1.23
2018-11-28T09:52:55.477Z,-1.20
2018-11-28T09:55:26.873Z,-1.16
2018-11-28T09:57:56.289Z,-1.11
2018-11-28T10:00:27.008Z,-1.09
2018-11-28T10:02:59.247Z,-1.10
2018-11-28T10:05:31.373Z,-1.07
2018-11-28T10:08:00.696Z,-1.01
2018-11-28T10:10:30.455Z,-0.95
2018-11-28T10:12:59.936Z,-0.94
2018-11-28T10:15:35.238Z,-0.93
2018-11-28T10:17:59.588Z,-0.84
2018-11-28T10:20:29.351Z,-0.75
2018-11-28T10:22:59.031Z,-0.71
2018-11-28T10:25:28.429Z,-0.72
2018-11-28T10:28:04.238Z,-0.71
2018-11-28T10:30:36.530Z,-0.71
2018-11-28T10:33:09.495Z,-0.70
2018-11-28T10:35:39.552Z,-0.63
2018-11-28T10:38:08.964Z,-0.56
2018-11-28T10:40:38.571Z,-0.58
2018-11-28T10:43:08.894Z,-0.53
2018-11-28T10:45:38.456Z,-0.45
2018-11-28T10:48:08.985Z,-0.44
2018-11-28T10:50:38.525Z,-0.44
2018-11-28T10:53:08.014Z,-0.31
2018-11-28T10:55:37.254Z,-0.25
2018-11-28T10:58:07.950Z,-0.20
2018-11-28T11:00:42.998Z,-0.15
2018-11-28T11:03:17.405Z,-0.14
2018-11-28T11:05:51.761Z,-0.11
2018-11-28T11:08:27.261Z,-0.04
2018-11-28T11:11:01.807Z,0.05
2018-11-28T11:13:36.341Z,0.11
2018-11-28T11:16:06.005Z,0.12
2018-11-28T11:18:35.137Z,0.23
2018-11-28T11:21:04.458Z,0.30
2018-11-28T11:23:33.882Z,0.35
2018-11-28T11:26:03.135Z,0.43
2018-11-28T11:28:32.414Z,0.42
2018-11-28T11:31:02.553Z,0.45
2018-11-28T11:33:31.783Z,0.49
2018-11-28T11:36:01.012Z,0.46
2018-11-28T11:38:30.296Z,0.47
2018-11-28T11:40:59.707Z,0.52
2018-11-28T11:43:29.151Z,0.54
2018-11-28T11:45:58.501Z,0.57
2018-11-28T11:48:27.911Z,0.62
2018-11-28T11:50:57.430Z,0.10
2018-11-28T11:53:26.928Z,0.75
2018-11-28T11:55:56.454Z,0.78
2018-11-28T11:58:26.047Z,0.82
2018-11-28T12:00:56.012Z,0.86
2018-11-28T12:03:25.212Z,0.90
2018-11-28T12:05:55.631Z,0.91
2018-11-28T12:08:25.679Z,0.88
2018-11-28T12:10:54.887Z,0.89
2018-11-28T12:13:24.242Z,0.93
2018-11-28T12:15:53.454Z,0.99
2018-11-28T12:18:22.765Z,1.03
2018-11-28T12:20:53.662Z,1.00
2018-11-28T12:23:24.059Z,1.05
2018-11-28T12:25:53.347Z,1.07
2018-11-28T12:28:23.100Z,1.09
2018-11-28T12:30:52.595Z,1.12
2018-11-28T12:33:22.312Z,1.16
2018-11-28T12:35:51.708Z,1.12
2018-11-28T12:38:22.002Z,1.11
2018-11-28T12:40:51.512Z,1.11
2018-11-28T12:43:21.515Z,1.07
2018-11-28T12:45:51.871Z,1.09
2018-11-28T12:48:21.202Z,1.04
2018-11-28T12:50:50.587Z,1.07
2018-11-28T12:53:20.566Z,1.10
2018-11-28T12:55:49.554Z,1.14
2018-11-28T12:58:20.875Z,1.19
2018-11-28T13:00:50.493Z,1.19
2018-11-28T13:03:20.386Z,1.23
2018-11-28T13:05:49.920Z,1.30
2018-11-28T13:08:19.890Z,1.30
2018-11-28T13:10:49.287Z,1.29
2018-11-28T13:13:18.392Z,1.29
2018-11-28T13:15:47.848Z,1.28
2018-11-28T13:18:17.358Z,1.26
2018-11-28T13:20:46.941Z,1.24
2018-11-28T13:23:16.978Z,1.19
2018-11-28T13:25:46.106Z,1.20
2018-11-28T13:28:15.545Z,1.18
2018-11-28T13:30:45.045Z,1.18
2018-11-28T13:33:14.331Z,1.19
2018-11-28T13:35:43.616Z,1.17
2018-11-28T13:38:13.917Z,1.18
2018-11-28T13:40:43.645Z,1.19
2018-11-28T13:43:13.050Z,1.16
2018-11-28T13:45:47.133Z,1.11
2018-11-28T13:48:17.161Z,1.13
2018-11-28T13:50:46.616Z,1.12
2018-11-28T13:53:19.334Z,1.15
2018-11-28T13:56:30.135Z,1.15
2018-11-28T13:58:20.342Z,1.17
2018-11-28T14:00:49.634Z,1.16
2018-11-28T14:03:18.834Z,1.11
2018-11-28T14:05:48.477Z,1.13
2018-11-28T14:08:17.695Z,1.14
2018-11-28T14:10:47.099Z,1.12
2018-11-28T14:13:16.494Z,1.11
2018-11-28T14:15:45.839Z,1.11
2018-11-28T14:18:17.348Z,1.08
2018-11-28T14:20:46.650Z,1.06
2018-11-28T14:23:15.970Z,1.07
2018-11-28T14:25:45.677Z,1.07
2018-11-28T14:28:15.032Z,1.10
2018-11-28T14:30:50.782Z,1.12
2018-11-28T14:33:20.273Z,1.08
2018-11-28T14:35:49.656Z,1.05
2018-11-28T14:38:19.248Z,1.02
2018-11-28T14:40:48.405Z,1.05
2018-11-28T14:43:17.432Z,1.08
2018-11-28T14:45:46.915Z,1.12
2018-11-28T14:48:16.136Z,1.15
2018-11-28T14:50:47.642Z,1.15
2018-11-28T14:53:17.178Z,1.15
2018-11-28T14:55:46.934Z,1.14
2018-11-28T14:58:16.130Z,1.21
2018-11-28T15:00:46.857Z,1.24
2018-11-28T15:03:19.496Z,1.22
2018-11-28T15:06:30.334Z,1.25
2018-11-28T15:09:04.795Z,1.30
2018-11-28T15:11:34.575Z,1.30
2018-11-28T15:14:04.724Z,1.29
2018-11-28T15:16:34.367Z,1.34
2018-11-28T15:19:03.540Z,1.37
2018-11-28T15:21:43.444Z,0.63
2018-11-28T15:24:21.450Z,1.42
2018-11-28T15:26:54.657Z,1.42
2018-11-28T15:29:26.356Z,1.38
2018-11-28T15:32:04.595Z,1.37
2018-11-28T15:34:35.370Z,1.40
2018-11-28T15:37:08.917Z,1.44
2018-11-28T15:39:38.345Z,1.47
2018-11-28T15:42:17.465Z,1.44
2018-11-28T15:44:47.008Z,1.45
2018-11-28T15:47:17.226Z,1.42
2018-11-28T15:49:49.333Z,1.42
2018-11-28T15:52:19.921Z,1.43
2018-11-28T15:54:51.329Z,1.45
2018-11-28T15:57:21.265Z,1.39
2018-11-28T15:59:50.588Z,1.42
2018-11-28T16:02:22.358Z,1.37
2018-11-28T16:04:52.346Z,1.39
2018-11-28T16:07:21.373Z,1.36
2018-11-28T16:09:56.503Z,1.36
2018-11-28T16:12:26.047Z,1.34
2018-11-28T16:14:55.399Z,1.34
2018-11-28T16:17:24.759Z,1.36
2018-11-28T16:19:53.789Z,1.31
2018-11-28T16:22:22.739Z,1.31
2018-11-28T16:24:51.886Z,1.35
2018-11-28T16:27:21.140Z,1.33
2018-11-28T16:29:55.713Z,1.30
2018-11-28T16:32:27.121Z,1.30
2018-11-28T16:35:41.368Z,1.26
2018-11-28T16:38:16.907Z,1.27
2018-11-28T16:40:46.478Z,1.27
2018-11-28T16:43:16.494Z,1.29
2018-11-28T16:45:56.562Z,1.27
2018-11-28T16:48:31.636Z,1.29
2018-11-28T16:51:05.653Z,1.35
2018-11-28T16:53:34.773Z,1.37
2018-11-28T16:56:04.193Z,1.37
2018-11-28T16:58:48.188Z,1.35
2018-11-28T17:01:18.322Z,1.40
2018-11-28T17:03:50.514Z,1.41
2018-11-28T17:06:28.463Z,1.42
2018-11-28T17:08:57.944Z,1.42
2018-11-28T17:11:34.615Z,1.40
2018-11-28T17:14:04.789Z,1.34
2018-11-28T17:16:34.573Z,1.37
2018-11-28T17:19:05.224Z,1.39
2018-11-28T17:21:47.042Z,1.39
2018-11-28T17:24:16.445Z,1.34
2018-11-28T17:26:45.649Z,1.39
2018-11-28T17:29:14.594Z,1.42
2018-11-28T17:31:44.140Z,1.47
2018-11-28T17:34:13.133Z,1.47
2018-11-28T17:36:42.118Z,1.49
2018-11-28T17:39:25.198Z,1.50
2018-11-28T17:41:55.117Z,1.47
2018-11-28T17:44:26.477Z,1.49
2018-11-28T17:46:57.769Z,1.51
2018-11-28T17:49:28.301Z,1.54
2018-11-28T17:51:57.665Z,1.55
2018-11-28T17:54:29.274Z,1.57
2018-11-28T17:57:00.904Z,1.60
2018-11-28T17:59:31.580Z,1.58
2018-11-28T18:02:02.254Z,1.59
2018-11-28T18:04:31.604Z,1.46
2018-11-28T18:07:01.634Z,1.55
2018-11-28T18:09:30.841Z,1.60
2018-11-28T18:12:00.329Z,1.60
2018-11-28T18:14:30.240Z,1.60
2018-11-28T18:16:59.749Z,1.61
2018-11-28T18:19:30.698Z,1.58
2018-11-28T18:22:02.189Z,1.58
2018-11-28T18:24:33.437Z,1.58
2018-11-28T18:27:04.130Z,1.58
2018-11-28T18:29:33.395Z,1.57
2018-11-28T18:32:07.642Z,1.58
2018-11-28T18:34:38.421Z,1.59
2018-11-28T18:37:08.987Z,1.61
2018-11-28T18:39:38.683Z,1.58
2018-11-28T18:42:08.050Z,1.58
2018-11-28T18:44:37.433Z,1.56
2018-11-28T18:47:08.476Z,1.58
2018-11-28T18:49:40.017Z,0.81
2018-11-28T18:52:14.351Z,1.58
2018-11-28T18:54:50.032Z,1.61
2018-11-28T18:57:19.707Z,1.59
2018-11-28T18:59:48.826Z,1.60
2018-11-28T19:02:19.401Z,1.62
2018-11-28T19:04:50.581Z,1.62
2018-11-28T19:07:20.286Z,-1.29
2018-11-28T19:09:51.576Z,1.63
2018-11-28T19:26:12.663Z,1.70
2018-11-28T19:28:44.907Z,1.73
2018-11-28T19:31:14.503Z,1.78
2018-11-28T19:33:44.063Z,1.77
2018-11-28T19:36:13.605Z,1.84
2018-11-28T19:38:43.449Z,1.86
2018-11-28T19:41:20.589Z,1.85
2018-11-28T19:43:50.217Z,1.85
2018-11-28T19:46:19.682Z,1.88
2018-11-28T19:48:49.109Z,1.95
2018-11-28T19:51:18.691Z,1.98
2018-11-28T19:53:47.850Z,2.00
2018-11-28T19:56:17.518Z,0.62
2018-11-28T19:58:47.300Z,2.05
2018-11-28T20:01:16.652Z,2.08
2018-11-28T20:03:46.152Z,2.09
2018-11-28T20:06:15.887Z,2.16
2018-11-28T20:08:46.513Z,2.14
2018-11-28T20:11:16.732Z,2.13
2018-11-28T20:13:46.585Z,2.16
2018-11-28T20:18:45.802Z,2.21
2018-11-28T20:21:15.387Z,2.23
2018-11-28T20:23:44.836Z,2.24
2018-11-28T20:26:14.575Z,2.26
2018-11-28T20:28:44.522Z,2.28
2018-11-28T20:31:14.126Z,2.30
2018-11-28T20:33:43.448Z,1.36
2018-11-28T20:36:13.214Z,2.37
2018-11-28T20:38:43.234Z,2.35
2018-11-28T20:41:13.240Z,-0.69
2018-11-28T20:43:42.458Z,2.34
2018-11-28T20:46:12.642Z,2.41
2018-11-28T20:48:42.154Z,2.38
2018-11-28T20:51:12.465Z,2.42
2018-11-28T20:53:42.240Z,2.41
2018-11-28T20:56:12.997Z,2.42
2018-11-28T20:58:42.571Z,2.44
2018-11-28T21:01:12.303Z,2.45
2018-11-28T21:03:42.760Z,2.46
2018-11-28T21:06:12.751Z,2.44
2018-11-28T21:08:43.046Z,2.44
2018-11-28T21:11:12.363Z,2.46
2018-11-28T21:13:41.849Z,2.51
2018-11-28T21:16:11.456Z,2.35
2018-11-28T21:18:40.627Z,2.50
2018-11-28T21:21:10.172Z,2.50
2018-11-28T21:23:39.708Z,2.52
2018-11-28T21:26:09.343Z,2.55
2018-11-28T21:28:38.826Z,2.59
2018-11-28T21:31:08.558Z,2.56
2018-11-28T21:33:38.098Z,2.58
2018-11-28T21:36:09.100Z,2.59
2018-11-28T21:38:39.165Z,2.60
2018-11-28T21:41:08.854Z,2.59
2018-11-28T21:43:38.251Z,2.54
2018-11-28T21:46:07.999Z,2.53
2018-11-28T21:48:37.570Z,2.53
2018-11-28T21:51:07.240Z,2.56
2018-11-28T21:53:36.835Z,2.56
2018-11-28T21:56:06.546Z,2.56
2018-11-28T21:58:35.913Z,2.56
2018-11-28T22:01:05.394Z,2.54
2018-11-28T22:03:35.014Z,2.54
2018-11-28T22:06:04.468Z,2.57
2018-11-28T22:08:34.037Z,2.59
2018-11-28T22:11:03.629Z,2.63
2018-11-28T22:13:33.241Z,2.59
2018-11-28T22:16:36.127Z,2.65
2018-11-28T22:19:05.806Z,2.63
2018-11-28T22:21:36.067Z,2.60
2018-11-28T22:24:07.197Z,2.63
2018-11-28T22:26:36.732Z,2.61
2018-11-28T22:29:06.423Z,2.63
2018-11-28T22:31:36.123Z,2.63
2018-11-28T22:34:05.755Z,2.63
2018-11-28T22:36:35.123Z,2.60
2018-11-28T22:39:05.796Z,2.59
2018-11-28T22:41:35.202Z,2.60
2018-11-28T22:44:04.949Z,2.65
2018-11-28T22:46:34.432Z,2.63
2018-11-28T22:49:03.785Z,2.67
2018-11-28T22:51:32.991Z,2.71
2018-11-28T22:54:02.524Z,2.71
2018-11-28T22:56:31.712Z,2.69
2018-11-28T22:59:01.017Z,2.69
2018-11-28T23:01:43.188Z,2.71
2018-11-28T23:04:12.683Z,1.97
2018-11-28T23:06:42.482Z,1.93
2018-11-28T23:09:13.539Z,2.71
2018-11-28T23:11:43.634Z,2.72
2018-11-28T23:14:13.273Z,2.76
2018-11-28T23:16:42.983Z,2.74
2018-11-28T23:19:12.810Z,2.81
2018-11-28T23:21:42.266Z,2.79
2018-11-28T23:24:11.883Z,2.76
2018-11-28T23:26:41.622Z,2.74
2018-11-28T23:29:11.127Z,2.74
2018-11-28T23:31:40.939Z,2.76
2018-11-28T23:34:10.353Z,2.78
2018-11-28T23:36:39.736Z,2.80
2018-11-28T23:39:09.294Z,2.77
2018-11-28T23:41:38.646Z,2.78
2018-11-28T23:44:08.015Z,2.78
2018-11-28T23:46:37.599Z,2.81
2018-11-28T23:49:07.270Z,2.83
2018-11-28T23:51:37.108Z,2.79
2018-11-28T23:54:07.487Z,2.80
2018-11-28T23:56:37.064Z,2.80
2018-11-28T23:59:07.818Z,2.85
